sensor_id;sensor_type;location;lat;lon;timestamp;P1;durP1;ratioP1;P2;durP2;ratioP2
5460;SDS011;2753;49.196;8.286;2022-09-01T00:01:29;13.57;;;6.13;;
5460;SDS011;2753;49.196;8.286;2022-09-01T00:03:55;6.57;;;5.97;;
5460;SDS011;2753;49.196;8.286;2022-09-01T00:06:27;6.40;;;5.80;;
5460;SDS011;2753;49.196;8.286;2022-09-01T00:08:55;8.00;;;6.63;;
5460;SDS011;2753;49.196;8.286;2022-09-01T00:11:23;7.23;;;6.50;;
5460;SDS011;2753;49.196;8.286;2022-09-01T00:13:51;6.97;;;6.13;;
5460;SDS011;2753;49.196;8.286;2022-09-01T00:16:18;6.50;;;5.93;;
5460;SDS011;2753;49.196;8.286;2022-09-01T00:18:45;14.30;;;6.30;;
5460;SDS011;2753;49.196;8.286;2022-09-01T00:21:16;10.00;;;5.73;;
5460;SDS011;2753;49.196;8.286;2022-09-01T00:23:44;13.17;;;6.83;;
5460;SDS011;2753;49.196;8.286;2022-09-01T00:26:11;6.23;;;5.70;;
5460;SDS011;2753;49.196;8.286;2022-09-01T00:28:37;6.80;;;5.83;;
5460;SDS011;2753;49.196;8.286;2022-09-01T00:31:04;7.00;;;6.07;;
5460;SDS011;2753;49.196;8.286;2022-09-01T00:33:32;9.37;;;5.80;;
5460;SDS011;2753;49.196;8.286;2022-09-01T00:35:58;14.97;;;6.70;;
5460;SDS011;2753;49.196;8.286;2022-09-01T00:38:24;11.30;;;7.13;;
5460;SDS011;2753;49.196;8.286;2022-09-01T00:40:51;5.27;;;4.87;;
5460;SDS011;2753;49.196;8.286;2022-09-01T00:43:52;9.37;;;6.23;;
5460;SDS011;2753;49.196;8.286;2022-09-01T00:46:19;5.93;;;5.43;;
5460;SDS011;2753;49.196;8.286;2022-09-01T00:48:56;10.50;;;5.80;;
5460;SDS011;2753;49.196;8.286;2022-09-01T00:51:26;8.20;;;6.43;;
5460;SDS011;2753;49.196;8.286;2022-09-01T00:53:53;11.23;;;6.90;;
5460;SDS011;2753;49.196;8.286;2022-09-01T00:56:20;10.10;;;6.63;;
5460;SDS011;2753;49.196;8.286;2022-09-01T00:58:47;8.20;;;6.00;;
5460;SDS011;2753;49.196;8.286;2022-09-01T01:01:13;8.40;;;6.50;;
5460;SDS011;2753;49.196;8.286;2022-09-01T01:03:39;12.93;;;7.23;;
5460;SDS011;2753;49.196;8.286;2022-09-01T01:06:08;9.50;;;6.77;;
5460;SDS011;2753;49.196;8.286;2022-09-01T01:08:36;7.40;;;6.70;;
5460;SDS011;2753;49.196;8.286;2022-09-01T01:11:08;6.50;;;5.90;;
5460;SDS011;2753;49.196;8.286;2022-09-01T01:16:19;7.30;;;6.60;;
5460;SDS011;2753;49.196;8.286;2022-09-01T01:18:45;6.73;;;6.13;;
5460;SDS011;2753;49.196;8.286;2022-09-01T01:21:19;7.30;;;5.90;;
5460;SDS011;2753;49.196;8.286;2022-09-01T01:24:05;7.37;;;6.07;;
5460;SDS011;2753;49.196;8.286;2022-09-01T01:26:49;7.23;;;5.87;;
5460;SDS011;2753;49.196;8.286;2022-09-01T01:29:15;12.07;;;6.70;;
5460;SDS011;2753;49.196;8.286;2022-09-01T01:31:41;16.70;;;5.90;;
5460;SDS011;2753;49.196;8.286;2022-09-01T01:34:07;9.03;;;7.10;;
5460;SDS011;2753;49.196;8.286;2022-09-01T01:36:34;10.03;;;6.20;;
5460;SDS011;2753;49.196;8.286;2022-09-01T01:39:09;6.80;;;6.20;;
5460;SDS011;2753;49.196;8.286;2022-09-01T01:41:52;9.10;;;5.73;;
5460;SDS011;2753;49.196;8.286;2022-09-01T01:44:22;6.80;;;6.20;;
5460;SDS011;2753;49.196;8.286;2022-09-01T01:46:52;6.60;;;5.47;;
5460;SDS011;2753;49.196;8.286;2022-09-01T01:49:20;7.53;;;6.73;;
5460;SDS011;2753;49.196;8.286;2022-09-01T01:51:48;7.70;;;6.17;;
5460;SDS011;2753;49.196;8.286;2022-09-01T01:54:19;7.00;;;6.30;;
5460;SDS011;2753;49.196;8.286;2022-09-01T01:56:44;9.00;;;5.97;;
5460;SDS011;2753;49.196;8.286;2022-09-01T01:59:11;6.53;;;6.00;;
5460;SDS011;2753;49.196;8.286;2022-09-01T02:01:38;8.90;;;7.07;;
5460;SDS011;2753;49.196;8.286;2022-09-01T02:04:06;6.57;;;6.00;;
5460;SDS011;2753;49.196;8.286;2022-09-01T02:06:35;6.67;;;5.87;;
5460;SDS011;2753;49.196;8.286;2022-09-01T02:09:04;8.37;;;6.00;;
5460;SDS011;2753;49.196;8.286;2022-09-01T02:11:31;7.30;;;6.60;;
5460;SDS011;2753;49.196;8.286;2022-09-01T02:14:02;11.20;;;6.77;;
5460;SDS011;2753;49.196;8.286;2022-09-01T02:16:30;9.53;;;6.10;;
5460;SDS011;2753;49.196;8.286;2022-09-01T02:18:57;14.17;;;6.10;;
5460;SDS011;2753;49.196;8.286;2022-09-01T02:21:23;6.83;;;5.67;;
5460;SDS011;2753;49.196;8.286;2022-09-01T02:23:55;7.07;;;6.43;;
5460;SDS011;2753;49.196;8.286;2022-09-01T02:26:27;10.60;;;6.37;;
5460;SDS011;2753;49.196;8.286;2022-09-01T02:28:56;10.27;;;6.00;;
5460;SDS011;2753;49.196;8.286;2022-09-01T02:31:27;10.20;;;6.80;;
5460;SDS011;2753;49.196;8.286;2022-09-01T02:33:53;6.40;;;5.80;;
5460;SDS011;2753;49.196;8.286;2022-09-01T02:36:19;6.43;;;5.83;;
5460;SDS011;2753;49.196;8.286;2022-09-01T02:38:45;6.50;;;5.70;;
5460;SDS011;2753;49.196;8.286;2022-09-01T02:41:13;6.60;;;5.53;;
5460;SDS011;2753;49.196;8.286;2022-09-01T02:43:40;7.77;;;5.77;;
5460;SDS011;2753;49.196;8.286;2022-09-01T02:46:10;6.57;;;5.43;;
5460;SDS011;2753;49.196;8.286;2022-09-01T02:48:37;6.30;;;5.70;;
5460;SDS011;2753;49.196;8.286;2022-09-01T02:51:06;5.80;;;5.30;;
5460;SDS011;2753;49.196;8.286;2022-09-01T02:53:35;5.97;;;5.40;;
5460;SDS011;2753;49.196;8.286;2022-09-01T02:56:02;9.07;;;6.00;;
5460;SDS011;2753;49.196;8.286;2022-09-01T02:58:33;8.73;;;5.73;;
5460;SDS011;2753;49.196;8.286;2022-09-01T03:01:09;6.00;;;5.10;;
5460;SDS011;2753;49.196;8.286;2022-09-01T03:03:44;6.30;;;5.43;;
5460;SDS011;2753;49.196;8.286;2022-09-01T03:06:10;8.33;;;5.57;;
5460;SDS011;2753;49.196;8.286;2022-09-01T03:08:37;12.57;;;5.20;;
5460;SDS011;2753;49.196;8.286;2022-09-01T03:11:03;7.80;;;5.73;;
5460;SDS011;2753;49.196;8.286;2022-09-01T03:13:34;6.93;;;5.30;;
5460;SDS011;2753;49.196;8.286;2022-09-01T03:16:01;7.83;;;6.07;;
5460;SDS011;2753;49.196;8.286;2022-09-01T03:18:27;7.33;;;5.43;;
5460;SDS011;2753;49.196;8.286;2022-09-01T03:20:52;7.30;;;6.40;;
5460;SDS011;2753;49.196;8.286;2022-09-01T03:23:18;5.87;;;5.40;;
5460;SDS011;2753;49.196;8.286;2022-09-01T03:25:45;5.47;;;4.97;;
5460;SDS011;2753;49.196;8.286;2022-09-01T03:28:12;8.97;;;5.60;;
5460;SDS011;2753;49.196;8.286;2022-09-01T03:30:42;6.17;;;5.57;;
5460;SDS011;2753;49.196;8.286;2022-09-01T03:33:10;14.07;;;5.87;;
5460;SDS011;2753;49.196;8.286;2022-09-01T03:35:36;5.80;;;4.63;;
5460;SDS011;2753;49.196;8.286;2022-09-01T03:38:02;5.77;;;5.27;;
5460;SDS011;2753;49.196;8.286;2022-09-01T03:40:30;5.10;;;4.70;;
5460;SDS011;2753;49.196;8.286;2022-09-01T03:42:58;11.00;;;5.33;;
5460;SDS011;2753;49.196;8.286;2022-09-01T03:45:24;5.90;;;5.17;;
5460;SDS011;2753;49.196;8.286;2022-09-01T03:47:51;7.30;;;5.50;;
5460;SDS011;2753;49.196;8.286;2022-09-01T03:50:19;5.53;;;4.90;;
5460;SDS011;2753;49.196;8.286;2022-09-01T03:52:51;8.23;;;4.37;;
5460;SDS011;2753;49.196;8.286;2022-09-01T03:55:23;5.63;;;5.23;;
5460;SDS011;2753;49.196;8.286;2022-09-01T03:57:52;6.33;;;5.47;;
5460;SDS011;2753;49.196;8.286;2022-09-01T04:00:23;5.23;;;4.83;;
5460;SDS011;2753;49.196;8.286;2022-09-01T04:02:54;7.13;;;5.40;;
5460;SDS011;2753;49.196;8.286;2022-09-01T04:05:23;9.40;;;4.83;;
5460;SDS011;2753;49.196;8.286;2022-09-01T04:07:53;5.87;;;5.20;;
5460;SDS011;2753;49.196;8.286;2022-09-01T04:10:21;5.53;;;5.03;;
5460;SDS011;2753;49.196;8.286;2022-09-01T04:12:47;5.27;;;4.87;;
5460;SDS011;2753;49.196;8.286;2022-09-01T04:15:14;4.73;;;4.40;;
5460;SDS011;2753;49.196;8.286;2022-09-01T04:17:42;5.03;;;4.50;;
5460;SDS011;2753;49.196;8.286;2022-09-01T04:20:26;5.17;;;4.67;;
5460;SDS011;2753;49.196;8.286;2022-09-01T04:22:53;5.50;;;5.00;;
5460;SDS011;2753;49.196;8.286;2022-09-01T04:25:19;4.30;;;4.10;;
5460;SDS011;2753;49.196;8.286;2022-09-01T04:27:50;6.60;;;4.80;;
5460;SDS011;2753;49.196;8.286;2022-09-01T04:30:20;4.53;;;4.20;;
5460;SDS011;2753;49.196;8.286;2022-09-01T04:32:49;18.13;;;5.80;;
5460;SDS011;2753;49.196;8.286;2022-09-01T04:35:16;5.97;;;4.80;;
5460;SDS011;2753;49.196;8.286;2022-09-01T04:37:42;7.07;;;4.90;;
5460;SDS011;2753;49.196;8.286;2022-09-01T04:40:11;4.73;;;4.30;;
5460;SDS011;2753;49.196;8.286;2022-09-01T04:42:38;6.97;;;5.80;;
5460;SDS011;2753;49.196;8.286;2022-09-01T04:45:05;8.10;;;4.83;;
5460;SDS011;2753;49.196;8.286;2022-09-01T04:47:34;5.23;;;4.73;;
5460;SDS011;2753;49.196;8.286;2022-09-01T04:50:06;4.87;;;4.47;;
5460;SDS011;2753;49.196;8.286;2022-09-01T04:52:41;9.60;;;4.40;;
5460;SDS011;2753;49.196;8.286;2022-09-01T04:55:08;5.60;;;4.70;;
5460;SDS011;2753;49.196;8.286;2022-09-01T04:57:41;8.83;;;4.70;;
5460;SDS011;2753;49.196;8.286;2022-09-01T05:00:12;4.30;;;4.10;;
5460;SDS011;2753;49.196;8.286;2022-09-01T05:02:46;4.80;;;4.43;;
5460;SDS011;2753;49.196;8.286;2022-09-01T05:05:27;8.10;;;4.93;;
5460;SDS011;2753;49.196;8.286;2022-09-01T05:07:53;8.73;;;4.50;;
5460;SDS011;2753;49.196;8.286;2022-09-01T05:10:19;5.27;;;4.80;;
5460;SDS011;2753;49.196;8.286;2022-09-01T05:12:46;4.97;;;4.57;;
5460;SDS011;2753;49.196;8.286;2022-09-01T05:15:14;7.73;;;4.70;;
5460;SDS011;2753;49.196;8.286;2022-09-01T05:17:41;6.17;;;4.97;;
5460;SDS011;2753;49.196;8.286;2022-09-01T05:20:08;8.40;;;4.93;;
5460;SDS011;2753;49.196;8.286;2022-09-01T05:22:34;9.80;;;4.90;;
5460;SDS011;2753;49.196;8.286;2022-09-01T05:25:00;6.83;;;4.80;;
5460;SDS011;2753;49.196;8.286;2022-09-01T05:27:29;4.53;;;4.20;;
5460;SDS011;2753;49.196;8.286;2022-09-01T05:29:55;9.73;;;4.93;;
5460;SDS011;2753;49.196;8.286;2022-09-01T05:32:24;5.03;;;4.50;;
5460;SDS011;2753;49.196;8.286;2022-09-01T05:34:51;6.03;;;5.17;;
5460;SDS011;2753;49.196;8.286;2022-09-01T05:37:17;8.40;;;5.20;;
5460;SDS011;2753;49.196;8.286;2022-09-01T05:39:44;6.00;;;4.60;;
5460;SDS011;2753;49.196;8.286;2022-09-01T05:42:09;11.60;;;5.37;;
5460;SDS011;2753;49.196;8.286;2022-09-01T05:44:35;7.70;;;5.70;;
5460;SDS011;2753;49.196;8.286;2022-09-01T05:47:05;6.27;;;4.97;;
5460;SDS011;2753;49.196;8.286;2022-09-01T05:49:32;6.57;;;4.73;;
5460;SDS011;2753;49.196;8.286;2022-09-01T05:51:58;5.07;;;4.33;;
5460;SDS011;2753;49.196;8.286;2022-09-01T05:54:24;3.97;;;3.70;;
5460;SDS011;2753;49.196;8.286;2022-09-01T05:56:52;4.80;;;4.40;;
5460;SDS011;2753;49.196;8.286;2022-09-01T05:59:19;5.27;;;4.77;;
5460;SDS011;2753;49.196;8.286;2022-09-01T06:01:45;9.70;;;5.23;;
5460;SDS011;2753;49.196;8.286;2022-09-01T06:04:12;4.57;;;4.27;;
5460;SDS011;2753;49.196;8.286;2022-09-01T06:06:42;7.90;;;5.20;;
5460;SDS011;2753;49.196;8.286;2022-09-01T06:09:10;8.70;;;5.27;;
5460;SDS011;2753;49.196;8.286;2022-09-01T06:11:38;19.93;;;4.73;;
5460;SDS011;2753;49.196;8.286;2022-09-01T06:14:05;5.20;;;4.80;;
5460;SDS011;2753;49.196;8.286;2022-09-01T06:16:35;5.17;;;4.53;;
5460;SDS011;2753;49.196;8.286;2022-09-01T06:19:01;5.43;;;4.90;;
5460;SDS011;2753;49.196;8.286;2022-09-01T06:21:27;4.73;;;4.33;;
5460;SDS011;2753;49.196;8.286;2022-09-01T06:23:53;5.23;;;4.70;;
5460;SDS011;2753;49.196;8.286;2022-09-01T06:26:28;7.53;;;4.57;;
5460;SDS011;2753;49.196;8.286;2022-09-01T06:29:14;4.97;;;4.57;;
5460;SDS011;2753;49.196;8.286;2022-09-01T06:31:39;4.63;;;4.13;;
5460;SDS011;2753;49.196;8.286;2022-09-01T06:34:07;9.67;;;5.23;;
5460;SDS011;2753;49.196;8.286;2022-09-01T06:36:35;6.00;;;5.47;;
5460;SDS011;2753;49.196;8.286;2022-09-01T06:39:04;5.40;;;4.90;;
5460;SDS011;2753;49.196;8.286;2022-09-01T06:41:30;7.63;;;5.50;;
5460;SDS011;2753;49.196;8.286;2022-09-01T06:43:56;6.90;;;5.30;;
5460;SDS011;2753;49.196;8.286;2022-09-01T06:46:22;8.63;;;5.73;;
5460;SDS011;2753;49.196;8.286;2022-09-01T06:48:52;11.40;;;5.40;;
5460;SDS011;2753;49.196;8.286;2022-09-01T06:51:20;6.30;;;5.80;;
5460;SDS011;2753;49.196;8.286;2022-09-01T06:53:48;6.50;;;5.90;;
5460;SDS011;2753;49.196;8.286;2022-09-01T06:56:17;14.47;;;6.13;;
5460;SDS011;2753;49.196;8.286;2022-09-01T06:58:43;7.13;;;6.50;;
5460;SDS011;2753;49.196;8.286;2022-09-01T07:01:13;9.77;;;6.53;;
5460;SDS011;2753;49.196;8.286;2022-09-01T07:03:43;7.20;;;5.43;;
5460;SDS011;2753;49.196;8.286;2022-09-01T07:06:11;8.53;;;6.00;;
5460;SDS011;2753;49.196;8.286;2022-09-01T07:08:38;6.80;;;5.73;;
5460;SDS011;2753;49.196;8.286;2022-09-01T07:11:05;9.83;;;6.00;;
5460;SDS011;2753;49.196;8.286;2022-09-01T07:13:32;8.50;;;5.30;;
5460;SDS011;2753;49.196;8.286;2022-09-01T07:15:59;8.30;;;6.20;;
5460;SDS011;2753;49.196;8.286;2022-09-01T07:18:26;9.03;;;6.40;;
5460;SDS011;2753;49.196;8.286;2022-09-01T07:20:53;10.97;;;7.53;;
5460;SDS011;2753;49.196;8.286;2022-09-01T07:23:19;8.60;;;7.37;;
5460;SDS011;2753;49.196;8.286;2022-09-01T07:25:48;8.57;;;7.10;;
5460;SDS011;2753;49.196;8.286;2022-09-01T07:28:19;15.37;;;6.97;;
5460;SDS011;2753;49.196;8.286;2022-09-01T07:30:48;8.03;;;6.60;;
5460;SDS011;2753;49.196;8.286;2022-09-01T07:33:17;8.90;;;7.27;;
5460;SDS011;2753;49.196;8.286;2022-09-01T07:35:48;21.93;;;7.50;;
5460;SDS011;2753;49.196;8.286;2022-09-01T07:38:17;7.00;;;6.30;;
5460;SDS011;2753;49.196;8.286;2022-09-01T07:40:43;9.73;;;7.43;;
5460;SDS011;2753;49.196;8.286;2022-09-01T07:43:18;11.40;;;6.97;;
5460;SDS011;2753;49.196;8.286;2022-09-01T07:45:49;10.57;;;8.57;;
5460;SDS011;2753;49.196;8.286;2022-09-01T07:48:19;11.33;;;8.23;;
5460;SDS011;2753;49.196;8.286;2022-09-01T07:50:49;9.43;;;7.77;;
5460;SDS011;2753;49.196;8.286;2022-09-01T07:53:17;9.70;;;7.30;;
5460;SDS011;2753;49.196;8.286;2022-09-01T07:55:55;10.80;;;8.83;;
5460;SDS011;2753;49.196;8.286;2022-09-01T07:58:24;12.33;;;9.03;;
5460;SDS011;2753;49.196;8.286;2022-09-01T08:00:52;14.53;;;8.83;;
5460;SDS011;2753;49.196;8.286;2022-09-01T08:03:20;9.93;;;8.67;;
5460;SDS011;2753;49.196;8.286;2022-09-01T08:05:50;8.47;;;7.60;;
5460;SDS011;2753;49.196;8.286;2022-09-01T08:08:21;14.33;;;9.00;;
5460;SDS011;2753;49.196;8.286;2022-09-01T08:10:47;13.60;;;8.57;;
5460;SDS011;2753;49.196;8.286;2022-09-01T08:13:13;10.70;;;8.93;;
5460;SDS011;2753;49.196;8.286;2022-09-01T08:15:39;11.30;;;9.60;;
5460;SDS011;2753;49.196;8.286;2022-09-01T08:18:05;17.57;;;8.40;;
5460;SDS011;2753;49.196;8.286;2022-09-01T08:20:32;12.47;;;9.63;;
5460;SDS011;2753;49.196;8.286;2022-09-01T08:23:03;9.63;;;8.73;;
5460;SDS011;2753;49.196;8.286;2022-09-01T08:25:31;13.73;;;9.00;;
5460;SDS011;2753;49.196;8.286;2022-09-01T08:27:58;9.80;;;8.80;;
5460;SDS011;2753;49.196;8.286;2022-09-01T08:30:25;10.27;;;8.60;;
5460;SDS011;2753;49.196;8.286;2022-09-01T08:32:51;9.70;;;8.70;;
5460;SDS011;2753;49.196;8.286;2022-09-01T08:35:17;12.67;;;8.60;;
5460;SDS011;2753;49.196;8.286;2022-09-01T08:37:43;11.73;;;8.73;;
5460;SDS011;2753;49.196;8.286;2022-09-01T08:40:11;9.53;;;8.40;;
5460;SDS011;2753;49.196;8.286;2022-09-01T08:45:30;13.97;;;9.03;;
5460;SDS011;2753;49.196;8.286;2022-09-01T08:48:00;9.83;;;8.83;;
5460;SDS011;2753;49.196;8.286;2022-09-01T08:50:32;8.30;;;7.37;;
5460;SDS011;2753;49.196;8.286;2022-09-01T08:53:11;8.70;;;7.90;;
5460;SDS011;2753;49.196;8.286;2022-09-01T08:55:54;9.67;;;8.07;;
5460;SDS011;2753;49.196;8.286;2022-09-01T08:58:21;12.20;;;8.47;;
5460;SDS011;2753;49.196;8.286;2022-09-01T09:00:51;9.50;;;8.30;;
5460;SDS011;2753;49.196;8.286;2022-09-01T09:14:12;8.90;;;7.50;;
5460;SDS011;2753;49.196;8.286;2022-09-01T09:17:02;10.77;;;5.83;;
5460;SDS011;2753;49.196;8.286;2022-09-01T09:21:56;6.57;;;5.90;;
5460;SDS011;2753;49.196;8.286;2022-09-01T09:24:31;7.10;;;5.70;;
5460;SDS011;2753;49.196;8.286;2022-09-01T09:29:48;10.23;;;4.70;;
5460;SDS011;2753;49.196;8.286;2022-09-01T09:32:17;5.30;;;4.80;;
5460;SDS011;2753;49.196;8.286;2022-09-01T09:34:44;6.40;;;5.70;;
5460;SDS011;2753;49.196;8.286;2022-09-01T09:37:18;6.77;;;5.90;;
5460;SDS011;2753;49.196;8.286;2022-09-01T09:40:10;8.50;;;6.20;;
5460;SDS011;2753;49.196;8.286;2022-09-01T09:47:45;6.73;;;5.80;;
5460;SDS011;2753;49.196;8.286;2022-09-01T09:52:47;6.43;;;5.93;;
5460;SDS011;2753;49.196;8.286;2022-09-01T09:55:25;5.63;;;5.10;;
5460;SDS011;2753;49.196;8.286;2022-09-01T09:57:57;5.83;;;5.33;;
5460;SDS011;2753;49.196;8.286;2022-09-01T10:03:00;6.43;;;5.13;;
5460;SDS011;2753;49.196;8.286;2022-09-01T10:05:40;5.30;;;4.90;;
5460;SDS011;2753;49.196;8.286;2022-09-01T10:11:01;7.97;;;5.30;;
5460;SDS011;2753;49.196;8.286;2022-09-01T10:13:28;6.13;;;5.27;;
5460;SDS011;2753;49.196;8.286;2022-09-01T10:15:56;8.03;;;6.30;;
5460;SDS011;2753;49.196;8.286;2022-09-01T10:18:26;5.67;;;5.17;;
5460;SDS011;2753;49.196;8.286;2022-09-01T10:20:57;6.97;;;6.13;;
5460;SDS011;2753;49.196;8.286;2022-09-01T10:23:28;6.50;;;5.90;;
5460;SDS011;2753;49.196;8.286;2022-09-01T10:25:55;6.47;;;5.87;;
5460;SDS011;2753;49.196;8.286;2022-09-01T10:31:34;6.60;;;5.97;;
5460;SDS011;2753;49.196;8.286;2022-09-01T10:34:02;5.90;;;5.30;;
5460;SDS011;2753;49.196;8.286;2022-09-01T10:36:29;5.83;;;5.30;;
5460;SDS011;2753;49.196;8.286;2022-09-01T10:38:56;7.30;;;5.60;;
5460;SDS011;2753;49.196;8.286;2022-09-01T10:44:11;5.73;;;5.33;;
5460;SDS011;2753;49.196;8.286;2022-09-01T10:46:48;8.27;;;5.50;;
5460;SDS011;2753;49.196;8.286;2022-09-01T10:52:09;8.73;;;5.10;;
5460;SDS011;2753;49.196;8.286;2022-09-01T10:57:08;6.27;;;5.70;;
5460;SDS011;2753;49.196;8.286;2022-09-01T10:59:46;6.27;;;5.77;;
5460;SDS011;2753;49.196;8.286;2022-09-01T11:02:18;6.83;;;6.23;;
5460;SDS011;2753;49.196;8.286;2022-09-01T11:09:46;7.33;;;6.13;;
5460;SDS011;2753;49.196;8.286;2022-09-01T11:23:00;6.73;;;5.37;;
5460;SDS011;2753;49.196;8.286;2022-09-01T11:35:49;5.80;;;5.30;;
5460;SDS011;2753;49.196;8.286;2022-09-01T11:38:26;9.17;;;5.70;;
5460;SDS011;2753;49.196;8.286;2022-09-01T11:40:56;5.70;;;5.20;;
5460;SDS011;2753;49.196;8.286;2022-09-01T11:43:22;5.43;;;5.00;;
5460;SDS011;2753;49.196;8.286;2022-09-01T11:48:27;6.80;;;5.33;;
5460;SDS011;2753;49.196;8.286;2022-09-01T11:50:56;5.77;;;5.27;;
5460;SDS011;2753;49.196;8.286;2022-09-01T11:53:23;6.47;;;4.43;;
5460;SDS011;2753;49.196;8.286;2022-09-01T11:55:51;5.80;;;5.30;;
5460;SDS011;2753;49.196;8.286;2022-09-01T12:00:52;4.80;;;4.40;;
5460;SDS011;2753;49.196;8.286;2022-09-01T12:03:22;4.73;;;4.33;;
5460;SDS011;2753;49.196;8.286;2022-09-01T12:05:55;5.10;;;4.70;;
5460;SDS011;2753;49.196;8.286;2022-09-01T12:08:29;5.27;;;4.77;;
5460;SDS011;2753;49.196;8.286;2022-09-01T12:11:05;5.53;;;4.60;;
5460;SDS011;2753;49.196;8.286;2022-09-01T12:13:33;6.23;;;5.40;;
5460;SDS011;2753;49.196;8.286;2022-09-01T12:16:01;5.70;;;4.10;;
5460;SDS011;2753;49.196;8.286;2022-09-01T12:18:33;9.03;;;4.70;;
5460;SDS011;2753;49.196;8.286;2022-09-01T12:21:04;4.57;;;4.23;;
5460;SDS011;2753;49.196;8.286;2022-09-01T12:23:38;4.87;;;4.43;;
5460;SDS011;2753;49.196;8.286;2022-09-01T12:26:23;5.30;;;4.80;;
5460;SDS011;2753;49.196;8.286;2022-09-01T12:28:51;6.77;;;4.43;;
5460;SDS011;2753;49.196;8.286;2022-09-01T12:31:18;9.50;;;5.10;;
5460;SDS011;2753;49.196;8.286;2022-09-01T12:33:48;5.67;;;5.00;;
5460;SDS011;2753;49.196;8.286;2022-09-01T12:36:30;5.00;;;4.60;;
5460;SDS011;2753;49.196;8.286;2022-09-01T12:41:41;5.30;;;4.90;;
5460;SDS011;2753;49.196;8.286;2022-09-01T12:47:08;5.27;;;4.87;;
5460;SDS011;2753;49.196;8.286;2022-09-01T12:54:46;5.10;;;4.73;;
5460;SDS011;2753;49.196;8.286;2022-09-01T13:02:51;4.97;;;4.63;;
5460;SDS011;2753;49.196;8.286;2022-09-01T13:05:40;6.40;;;4.23;;
5460;SDS011;2753;49.196;8.286;2022-09-01T13:08:13;4.77;;;4.37;;
5460;SDS011;2753;49.196;8.286;2022-09-01T13:10:49;5.93;;;3.97;;
5460;SDS011;2753;49.196;8.286;2022-09-01T13:13:17;5.00;;;4.50;;
5460;SDS011;2753;49.196;8.286;2022-09-01T13:15:46;4.00;;;3.80;;
5460;SDS011;2753;49.196;8.286;2022-09-01T13:18:15;4.77;;;4.37;;
5460;SDS011;2753;49.196;8.286;2022-09-01T13:20:42;4.90;;;4.40;;
5460;SDS011;2753;49.196;8.286;2022-09-01T13:23:08;5.07;;;4.67;;
5460;SDS011;2753;49.196;8.286;2022-09-01T13:25:36;4.17;;;3.97;;
5460;SDS011;2753;49.196;8.286;2022-09-01T13:28:02;4.80;;;3.33;;
5460;SDS011;2753;49.196;8.286;2022-09-01T13:30:29;4.50;;;4.10;;
5460;SDS011;2753;49.196;8.286;2022-09-01T13:32:55;4.30;;;3.97;;
5460;SDS011;2753;49.196;8.286;2022-09-01T13:35:22;4.53;;;4.20;;
5460;SDS011;2753;49.196;8.286;2022-09-01T13:37:48;4.70;;;4.30;;
5460;SDS011;2753;49.196;8.286;2022-09-01T13:40:15;4.63;;;4.33;;
5460;SDS011;2753;49.196;8.286;2022-09-01T13:42:45;4.40;;;4.10;;
5460;SDS011;2753;49.196;8.286;2022-09-01T13:45:13;4.70;;;4.20;;
5460;SDS011;2753;49.196;8.286;2022-09-01T13:47:42;4.97;;;4.30;;
5460;SDS011;2753;49.196;8.286;2022-09-01T13:50:09;5.17;;;4.07;;
5460;SDS011;2753;49.196;8.286;2022-09-01T13:52:41;8.53;;;4.50;;
5460;SDS011;2753;49.196;8.286;2022-09-01T13:55:15;4.40;;;4.10;;
5460;SDS011;2753;49.196;8.286;2022-09-01T13:57:52;5.37;;;3.80;;
5460;SDS011;2753;49.196;8.286;2022-09-01T14:00:21;4.50;;;4.10;;
5460;SDS011;2753;49.196;8.286;2022-09-01T14:02:50;4.37;;;3.80;;
5460;SDS011;2753;49.196;8.286;2022-09-01T14:05:33;6.33;;;3.70;;
5460;SDS011;2753;49.196;8.286;2022-09-01T14:08:02;3.67;;;3.37;;
5460;SDS011;2753;49.196;8.286;2022-09-01T14:10:29;3.27;;;3.07;;
5460;SDS011;2753;49.196;8.286;2022-09-01T14:12:59;3.20;;;3.00;;
5460;SDS011;2753;49.196;8.286;2022-09-01T14:15:25;4.37;;;3.63;;
5460;SDS011;2753;49.196;8.286;2022-09-01T14:17:52;4.87;;;3.13;;
5460;SDS011;2753;49.196;8.286;2022-09-01T14:20:22;3.67;;;3.37;;
5460;SDS011;2753;49.196;8.286;2022-09-01T14:22:50;4.40;;;4.03;;
5460;SDS011;2753;49.196;8.286;2022-09-01T14:25:18;4.30;;;3.10;;
5460;SDS011;2753;49.196;8.286;2022-09-01T14:27:45;3.37;;;3.17;;
5460;SDS011;2753;49.196;8.286;2022-09-01T14:30:16;3.30;;;3.10;;
5460;SDS011;2753;49.196;8.286;2022-09-01T14:32:45;3.40;;;3.20;;
5460;SDS011;2753;49.196;8.286;2022-09-01T14:35:11;4.17;;;3.87;;
5460;SDS011;2753;49.196;8.286;2022-09-01T14:37:38;3.40;;;3.20;;
5460;SDS011;2753;49.196;8.286;2022-09-01T14:40:05;2.80;;;2.70;;
5460;SDS011;2753;49.196;8.286;2022-09-01T14:42:32;4.10;;;3.80;;
5460;SDS011;2753;49.196;8.286;2022-09-01T14:44:59;3.67;;;3.47;;
5460;SDS011;2753;49.196;8.286;2022-09-01T14:47:26;2.53;;;2.43;;
5460;SDS011;2753;49.196;8.286;2022-09-01T14:49:51;2.73;;;2.53;;
5460;SDS011;2753;49.196;8.286;2022-09-01T14:52:18;3.40;;;3.20;;
5460;SDS011;2753;49.196;8.286;2022-09-01T14:54:45;3.97;;;2.60;;
5460;SDS011;2753;49.196;8.286;2022-09-01T14:57:11;6.83;;;2.33;;
5460;SDS011;2753;49.196;8.286;2022-09-01T14:59:38;2.97;;;2.67;;
5460;SDS011;2753;49.196;8.286;2022-09-01T15:02:05;3.00;;;2.80;;
5460;SDS011;2753;49.196;8.286;2022-09-01T15:04:31;3.17;;;2.97;;
5460;SDS011;2753;49.196;8.286;2022-09-01T15:06:57;3.03;;;2.70;;
5460;SDS011;2753;49.196;8.286;2022-09-01T15:09:24;2.90;;;2.70;;
5460;SDS011;2753;49.196;8.286;2022-09-01T15:11:50;2.40;;;2.30;;
5460;SDS011;2753;49.196;8.286;2022-09-01T15:14:16;3.10;;;2.80;;
5460;SDS011;2753;49.196;8.286;2022-09-01T15:16:42;5.70;;;2.70;;
5460;SDS011;2753;49.196;8.286;2022-09-01T15:19:09;3.93;;;3.23;;
5460;SDS011;2753;49.196;8.286;2022-09-01T15:21:36;3.70;;;3.43;;
5460;SDS011;2753;49.196;8.286;2022-09-01T15:24:03;3.57;;;3.23;;
5460;SDS011;2753;49.196;8.286;2022-09-01T15:26:30;3.90;;;3.40;;
5460;SDS011;2753;49.196;8.286;2022-09-01T15:28:56;2.93;;;2.83;;
5460;SDS011;2753;49.196;8.286;2022-09-01T15:31:23;4.93;;;2.93;;
5460;SDS011;2753;49.196;8.286;2022-09-01T15:33:53;3.33;;;3.00;;
5460;SDS011;2753;49.196;8.286;2022-09-01T15:36:20;2.80;;;2.70;;
5460;SDS011;2753;49.196;8.286;2022-09-01T15:38:47;3.00;;;2.80;;
5460;SDS011;2753;49.196;8.286;2022-09-01T15:41:17;3.83;;;2.93;;
5460;SDS011;2753;49.196;8.286;2022-09-01T15:43:44;17.30;;;3.60;;
5460;SDS011;2753;49.196;8.286;2022-09-01T15:46:10;2.90;;;2.80;;
5460;SDS011;2753;49.196;8.286;2022-09-01T15:48:37;3.17;;;2.97;;
5460;SDS011;2753;49.196;8.286;2022-09-01T15:53:50;8.60;;;3.00;;
5460;SDS011;2753;49.196;8.286;2022-09-01T15:56:18;6.93;;;3.17;;
5460;SDS011;2753;49.196;8.286;2022-09-01T15:58:47;3.60;;;3.30;;
5460;SDS011;2753;49.196;8.286;2022-09-01T16:01:14;3.87;;;3.67;;
5460;SDS011;2753;49.196;8.286;2022-09-01T16:03:42;3.47;;;3.17;;
5460;SDS011;2753;49.196;8.286;2022-09-01T16:06:07;3.57;;;3.37;;
5460;SDS011;2753;49.196;8.286;2022-09-01T16:08:34;3.47;;;3.17;;
5460;SDS011;2753;49.196;8.286;2022-09-01T16:11:00;3.17;;;2.93;;
5460;SDS011;2753;49.196;8.286;2022-09-01T16:13:34;3.10;;;2.90;;
5460;SDS011;2753;49.196;8.286;2022-09-01T16:19:05;3.80;;;3.50;;
5460;SDS011;2753;49.196;8.286;2022-09-01T16:21:55;5.10;;;3.57;;
5460;SDS011;2753;49.196;8.286;2022-09-01T16:24:45;3.40;;;3.10;;
5460;SDS011;2753;49.196;8.286;2022-09-01T16:27:14;11.70;;;2.90;;
5460;SDS011;2753;49.196;8.286;2022-09-01T16:32:17;3.23;;;2.97;;
5460;SDS011;2753;49.196;8.286;2022-09-01T16:34:45;3.47;;;3.27;;
5460;SDS011;2753;49.196;8.286;2022-09-01T16:37:16;3.50;;;3.30;;
5460;SDS011;2753;49.196;8.286;2022-09-01T16:39:46;2.73;;;2.53;;
5460;SDS011;2753;49.196;8.286;2022-09-01T17:05:00;3.33;;;3.00;;
5460;SDS011;2753;49.196;8.286;2022-09-01T17:07:13;3.53;;;3.33;;
5460;SDS011;2753;49.196;8.286;2022-09-01T17:12:21;3.70;;;2.70;;
5460;SDS011;2753;49.196;8.286;2022-09-01T17:15:02;3.57;;;3.27;;
5460;SDS011;2753;49.196;8.286;2022-09-01T17:17:44;4.93;;;2.90;;
5460;SDS011;2753;49.196;8.286;2022-09-01T17:20:13;3.30;;;2.97;;
5460;SDS011;2753;49.196;8.286;2022-09-01T17:22:43;4.53;;;3.13;;
5460;SDS011;2753;49.196;8.286;2022-09-01T17:28:48;3.47;;;3.20;;
5460;SDS011;2753;49.196;8.286;2022-09-01T17:31:12;3.50;;;3.30;;
5460;SDS011;2753;49.196;8.286;2022-09-01T17:34:00;3.10;;;2.90;;
5460;SDS011;2753;49.196;8.286;2022-09-01T17:42:31;7.30;;;3.27;;